Terminal Aerodrome Forecast
Issued by NWS

Home | Current Version | Previous Version | Text Only | Print | Product List | Glossary On
Versions: 1 2 3 4 5 6 7 8 9 10 11 12 13 14 15 16 17 18 19 20 21 22
421
FTUS43 KJKL 300554 CCA
TAFSME
TAF COR
KSME 300554Z 3006/3106 00000KT 6SM BR SCT025 BKN045
     FM300800 00000KT 3SM BR SCT003 BKN015
     FM301300 VRB06KT P6SM VCSH SCT003 BKN015
     FM301500 24006KT P6SM VCTS SCT025CB BKN040
     FM310000 26004KT P6SM SCT040 BKN050=

USA.gov is the U.S. government's official web portal to all federal, state and local government web resources and services.